sensor_id;sensor_type;location;lat;lon;timestamp;pressure;altitude;pressure_sealevel;temperature;humidity
3102;BME280;1561;42.666;23.392;2024-01-10T00:00:43;96279.13;;;-3.22;100.00
3102;BME280;1561;42.666;23.392;2024-01-10T00:03:12;96271.56;;;-3.19;100.00
3102;BME280;1561;42.666;23.392;2024-01-10T00:05:39;96286.56;;;-3.19;100.00
3102;BME280;1561;42.666;23.392;2024-01-10T00:08:20;96275.13;;;-3.37;100.00
3102;BME280;1561;42.666;23.392;2024-01-10T00:10:48;96272.66;;;-3.43;100.00
3102;BME280;1561;42.666;23.392;2024-01-10T00:13:17;96279.94;;;-3.22;100.00
3102;BME280;1561;42.666;23.392;2024-01-10T00:15:48;96275.72;;;-3.18;100.00
3102;BME280;1561;42.666;23.392;2024-01-10T00:18:15;96280.03;;;-3.31;100.00
3102;BME280;1561;42.666;23.392;2024-01-10T00:20:53;96284.19;;;-3.30;100.00
3102;BME280;1561;42.666;23.392;2024-01-10T00:23:24;96289.41;;;-3.52;100.00
3102;BME280;1561;42.666;23.392;2024-01-10T00:25:55;96287.59;;;-3.37;100.00
3102;BME280;1561;42.666;23.392;2024-01-10T00:28:23;96296.63;;;-3.25;100.00
3102;BME280;1561;42.666;23.392;2024-01-10T00:30:51;96191.47;;;-3.77;100.00
3102;BME280;1561;42.666;23.392;2024-01-10T00:33:19;96294.22;;;-3.34;100.00
3102;BME280;1561;42.666;23.392;2024-01-10T00:35:50;96297.69;;;-3.49;100.00
3102;BME280;1561;42.666;23.392;2024-01-10T00:38:20;96308.47;;;-3.44;100.00
3102;BME280;1561;42.666;23.392;2024-01-10T00:40:52;96251.31;;;-3.69;100.00
3102;BME280;1561;42.666;23.392;2024-01-10T00:43:22;96287.41;;;-3.17;100.00
3102;BME280;1561;42.666;23.392;2024-01-10T00:45:52;96290.59;;;-3.06;100.00
3102;BME280;1561;42.666;23.392;2024-01-10T00:48:24;96292.34;;;-3.14;100.00
3102;BME280;1561;42.666;23.392;2024-01-10T00:50:53;96176.63;;;-3.90;100.00
3102;BME280;1561;42.666;23.392;2024-01-10T00:53:24;96290.88;;;-3.32;100.00
3102;BME280;1561;42.666;23.392;2024-01-10T00:55:53;96289.94;;;-3.22;100.00
3102;BME280;1561;42.666;23.392;2024-01-10T00:58:20;96180.78;;;-3.89;100.00
3102;BME280;1561;42.666;23.392;2024-01-10T01:00:48;96304.56;;;-3.70;100.00
3102;BME280;1561;42.666;23.392;2024-01-10T01:03:15;96182.72;;;-4.17;100.00
3102;BME280;1561;42.666;23.392;2024-01-10T01:05:44;96279.47;;;-3.58;100.00
3102;BME280;1561;42.666;23.392;2024-01-10T01:08:13;96272.22;;;-3.82;100.00
3102;BME280;1561;42.666;23.392;2024-01-10T01:10:43;96288.28;;;-3.21;100.00
3102;BME280;1561;42.666;23.392;2024-01-10T01:13:14;96273.78;;;-3.71;100.00
3102;BME280;1561;42.666;23.392;2024-01-10T01:15:44;96291.81;;;-3.42;100.00
3102;BME280;1561;42.666;23.392;2024-01-10T01:18:12;96290.00;;;-3.29;100.00
3102;BME280;1561;42.666;23.392;2024-01-10T01:20:40;96282.69;;;-3.46;100.00
3102;BME280;1561;42.666;23.392;2024-01-10T01:23:09;96278.47;;;-3.39;100.00
3102;BME280;1561;42.666;23.392;2024-01-10T01:25:37;96283.47;;;-3.39;100.00
3102;BME280;1561;42.666;23.392;2024-01-10T01:28:04;96293.25;;;-3.20;100.00
3102;BME280;1561;42.666;23.392;2024-01-10T01:30:34;96254.16;;;-3.22;100.00
3102;BME280;1561;42.666;23.392;2024-01-10T01:33:01;96274.81;;;-3.11;100.00
3102;BME280;1561;42.666;23.392;2024-01-10T01:35:30;96278.16;;;-3.12;100.00
3102;BME280;1561;42.666;23.392;2024-01-10T01:37:57;96275.78;;;-3.23;100.00
3102;BME280;1561;42.666;23.392;2024-01-10T01:40:25;96277.47;;;-3.25;100.00
3102;BME280;1561;42.666;23.392;2024-01-10T01:42:53;96270.91;;;-3.35;100.00
3102;BME280;1561;42.666;23.392;2024-01-10T01:45:20;96255.03;;;-3.26;100.00
3102;BME280;1561;42.666;23.392;2024-01-10T01:47:49;96163.38;;;-3.92;100.00
3102;BME280;1561;42.666;23.392;2024-01-10T01:50:21;96275.69;;;-3.12;100.00
3102;BME280;1561;42.666;23.392;2024-01-10T01:52:48;96275.88;;;-3.30;100.00
3102;BME280;1561;42.666;23.392;2024-01-10T01:55:16;96242.06;;;-3.61;100.00
3102;BME280;1561;42.666;23.392;2024-01-10T01:57:44;96269.13;;;-3.22;100.00
3102;BME280;1561;42.666;23.392;2024-01-10T02:00:12;96259.91;;;-3.16;100.00
3102;BME280;1561;42.666;23.392;2024-01-10T02:02:39;96261.53;;;-3.13;100.00
3102;BME280;1561;42.666;23.392;2024-01-10T02:05:10;96264.94;;;-3.20;100.00
3102;BME280;1561;42.666;23.392;2024-01-10T02:07:40;96250.72;;;-3.17;100.00
3102;BME280;1561;42.666;23.392;2024-01-10T02:10:08;96243.31;;;-3.24;100.00
3102;BME280;1561;42.666;23.392;2024-01-10T02:12:45;96254.38;;;-3.45;100.00
3102;BME280;1561;42.666;23.392;2024-01-10T02:15:14;96245.34;;;-3.55;100.00
3102;BME280;1561;42.666;23.392;2024-01-10T02:17:41;96254.56;;;-3.63;100.00
3102;BME280;1561;42.666;23.392;2024-01-10T02:20:15;96249.41;;;-3.49;100.00
3102;BME280;1561;42.666;23.392;2024-01-10T02:22:44;96251.91;;;-3.46;100.00
3102;BME280;1561;42.666;23.392;2024-01-10T02:25:23;96245.25;;;-3.46;100.00
3102;BME280;1561;42.666;23.392;2024-01-10T02:27:50;96249.19;;;-3.27;100.00
3102;BME280;1561;42.666;23.392;2024-01-10T02:30:17;96052.41;;;-4.35;100.00
3102;BME280;1561;42.666;23.392;2024-01-10T02:32:45;96251.72;;;-3.30;100.00
3102;BME280;1561;42.666;23.392;2024-01-10T02:35:13;96242.59;;;-3.32;100.00
3102;BME280;1561;42.666;23.392;2024-01-10T02:37:44;96249.97;;;-3.22;100.00
3102;BME280;1561;42.666;23.392;2024-01-10T02:40:15;96235.78;;;-3.20;100.00
3102;BME280;1561;42.666;23.392;2024-01-10T02:42:46;96255.63;;;-3.08;100.00
3102;BME280;1561;42.666;23.392;2024-01-10T02:45:14;96233.34;;;-3.26;100.00
3102;BME280;1561;42.666;23.392;2024-01-10T02:47:44;96249.84;;;-3.11;100.00
3102;BME280;1561;42.666;23.392;2024-01-10T02:50:11;96256.66;;;-3.25;100.00
3102;BME280;1561;42.666;23.392;2024-01-10T02:52:38;96251.81;;;-3.40;100.00
3102;BME280;1561;42.666;23.392;2024-01-10T02:55:06;96250.13;;;-3.37;100.00
3102;BME280;1561;42.666;23.392;2024-01-10T02:57:35;96240.75;;;-3.18;100.00
3102;BME280;1561;42.666;23.392;2024-01-10T03:00:07;96223.34;;;-3.23;100.00
3102;BME280;1561;42.666;23.392;2024-01-10T03:02:35;96260.06;;;-3.31;100.00
3102;BME280;1561;42.666;23.392;2024-01-10T03:05:03;96257.47;;;-3.25;100.00
3102;BME280;1561;42.666;23.392;2024-01-10T03:07:32;96261.78;;;-3.39;100.00
3102;BME280;1561;42.666;23.392;2024-01-10T03:10:03;96256.56;;;-3.18;100.00
3102;BME280;1561;42.666;23.392;2024-01-10T03:12:30;96246.38;;;-3.03;100.00
3102;BME280;1561;42.666;23.392;2024-01-10T03:15:06;96254.72;;;-3.02;100.00
3102;BME280;1561;42.666;23.392;2024-01-10T03:17:34;96237.22;;;-3.02;100.00
3102;BME280;1561;42.666;23.392;2024-01-10T03:20:02;96241.56;;;-3.15;100.00
3102;BME280;1561;42.666;23.392;2024-01-10T03:22:31;96249.16;;;-3.22;100.00
3102;BME280;1561;42.666;23.392;2024-01-10T03:24:58;96264.38;;;-3.43;100.00
3102;BME280;1561;42.666;23.392;2024-01-10T03:27:26;96134.47;;;-4.14;100.00
3102;BME280;1561;42.666;23.392;2024-01-10T03:29:56;96240.38;;;-3.58;100.00
3102;BME280;1561;42.666;23.392;2024-01-10T03:32:26;96256.69;;;-3.28;100.00
3102;BME280;1561;42.666;23.392;2024-01-10T03:34:54;96141.81;;;-4.01;100.00
3102;BME280;1561;42.666;23.392;2024-01-10T03:37:21;96252.47;;;-3.22;100.00
3102;BME280;1561;42.666;23.392;2024-01-10T03:39:48;96253.34;;;-3.26;100.00
3102;BME280;1561;42.666;23.392;2024-01-10T03:42:16;96257.28;;;-3.07;100.00
3102;BME280;1561;42.666;23.392;2024-01-10T03:44:43;96254.28;;;-3.36;100.00
3102;BME280;1561;42.666;23.392;2024-01-10T03:47:12;96253.59;;;-3.48;100.00
3102;BME280;1561;42.666;23.392;2024-01-10T03:49:41;96223.56;;;-3.45;100.00
3102;BME280;1561;42.666;23.392;2024-01-10T03:52:10;96149.38;;;-4.07;100.00
3102;BME280;1561;42.666;23.392;2024-01-10T03:54:45;96250.25;;;-3.47;100.00
3102;BME280;1561;42.666;23.392;2024-01-10T03:57:13;96252.66;;;-3.41;100.00
3102;BME280;1561;42.666;23.392;2024-01-10T03:59:44;96256.97;;;-3.55;100.00
3102;BME280;1561;42.666;23.392;2024-01-10T04:02:13;96271.13;;;-3.54;100.00
3102;BME280;1561;42.666;23.392;2024-01-10T04:04:44;96276.25;;;-3.69;100.00
3102;BME280;1561;42.666;23.392;2024-01-10T04:07:11;96153.78;;;-4.34;100.00
3102;BME280;1561;42.666;23.392;2024-01-10T04:09:39;96272.91;;;-3.67;100.00
3102;BME280;1561;42.666;23.392;2024-01-10T04:12:07;96280.41;;;-3.70;100.00
3102;BME280;1561;42.666;23.392;2024-01-10T04:14:36;96250.66;;;-3.89;100.00
3102;BME280;1561;42.666;23.392;2024-01-10T04:17:11;96263.91;;;-3.83;100.00
3102;BME280;1561;42.666;23.392;2024-01-10T04:19:38;96277.91;;;-3.65;100.00
3102;BME280;1561;42.666;23.392;2024-01-10T04:22:08;96282.88;;;-3.65;100.00
3102;BME280;1561;42.666;23.392;2024-01-10T04:24:37;96067.81;;;-4.83;100.00
3102;BME280;1561;42.666;23.392;2024-01-10T04:27:05;96282.59;;;-3.37;100.00
3102;BME280;1561;42.666;23.392;2024-01-10T04:29:33;96271.00;;;-3.42;100.00
3102;BME280;1561;42.666;23.392;2024-01-10T04:32:02;96287.59;;;-3.37;100.00
3102;BME280;1561;42.666;23.392;2024-01-10T04:34:32;96267.81;;;-3.56;100.00
3102;BME280;1561;42.666;23.392;2024-01-10T04:37:08;96291.81;;;-3.42;100.00
3102;BME280;1561;42.666;23.392;2024-01-10T04:39:35;96290.81;;;-3.27;100.00
3102;BME280;1561;42.666;23.392;2024-01-10T04:42:04;96295.84;;;-3.29;100.00
3102;BME280;1561;42.666;23.392;2024-01-10T04:44:36;96199.94;;;-3.91;100.00
3102;BME280;1561;42.666;23.392;2024-01-10T04:47:07;96298.28;;;-3.24;100.00
3102;BME280;1561;42.666;23.392;2024-01-10T04:49:34;96305.03;;;-3.34;100.00
3102;BME280;1561;42.666;23.392;2024-01-10T04:52:05;96310.88;;;-3.36;100.00
3102;BME280;1561;42.666;23.392;2024-01-10T04:54:34;96309.91;;;-3.22;100.00
3102;BME280;1561;42.666;23.392;2024-01-10T04:57:03;96308.25;;;-3.21;100.00
3102;BME280;1561;42.666;23.392;2024-01-10T04:59:32;96276.75;;;-3.36;100.00
3102;BME280;1561;42.666;23.392;2024-01-10T05:02:02;96292.63;;;-3.40;100.00
3102;BME280;1561;42.666;23.392;2024-01-10T05:04:29;96320.66;;;-3.12;100.00
3102;BME280;1561;42.666;23.392;2024-01-10T05:06:59;96309.72;;;-3.05;100.00
3102;BME280;1561;42.666;23.392;2024-01-10T05:09:29;96298.88;;;-3.03;100.00
3102;BME280;1561;42.666;23.392;2024-01-10T05:12:07;96307.38;;;-3.19;100.00
3102;BME280;1561;42.666;23.392;2024-01-10T05:14:37;96300.78;;;-3.23;100.00
3102;BME280;1561;42.666;23.392;2024-01-10T05:17:05;96311.41;;;-3.06;100.00
3102;BME280;1561;42.666;23.392;2024-01-10T05:19:32;96314.88;;;-3.17;100.00
3102;BME280;1561;42.666;23.392;2024-01-10T05:22:13;96317.38;;;-3.16;100.00
3102;BME280;1561;42.666;23.392;2024-01-10T05:24:42;96288.28;;;-3.21;100.00
3102;BME280;1561;42.666;23.392;2024-01-10T05:27:15;96327.19;;;-3.01;100.00
3102;BME280;1561;42.666;23.392;2024-01-10T05:29:42;96321.41;;;-3.07;100.00
3102;BME280;1561;42.666;23.392;2024-01-10T05:32:13;96324.00;;;-3.15;100.00
3102;BME280;1561;42.666;23.392;2024-01-10T05:34:40;96326.72;;;-3.37;100.00
3102;BME280;1561;42.666;23.392;2024-01-10T05:37:09;96326.50;;;-3.15;100.00
3102;BME280;1561;42.666;23.392;2024-01-10T05:39:36;96336.50;;;-3.16;100.00
3102;BME280;1561;42.666;23.392;2024-01-10T05:42:06;96333.81;;;-3.00;100.00
3102;BME280;1561;42.666;23.392;2024-01-10T05:44:36;96329.59;;;-2.95;100.00
3102;BME280;1561;42.666;23.392;2024-01-10T05:47:07;96283.19;;;-3.15;100.00
3102;BME280;1561;42.666;23.392;2024-01-10T05:49:36;96331.41;;;-3.07;100.00
3102;BME280;1561;42.666;23.392;2024-01-10T05:52:05;96324.00;;;-3.15;100.00
3102;BME280;1561;42.666;23.392;2024-01-10T05:54:32;96335.47;;;-2.99;100.00
3102;BME280;1561;42.666;23.392;2024-01-10T05:57:00;96335.59;;;-3.09;100.00
3102;BME280;1561;42.666;23.392;2024-01-10T05:59:38;96336.50;;;-3.16;100.00
3102;BME280;1561;42.666;23.392;2024-01-10T06:02:13;96335.56;;;-3.08;100.00
3102;BME280;1561;42.666;23.392;2024-01-10T06:04:44;96338.84;;;-3.01;100.00
3102;BME280;1561;42.666;23.392;2024-01-10T06:07:12;96336.25;;;-2.92;100.00
3102;BME280;1561;42.666;23.392;2024-01-10T06:09:51;96354.69;;;-3.02;100.00
3102;BME280;1561;42.666;23.392;2024-01-10T06:12:20;96336.41;;;-3.07;100.00
3102;BME280;1561;42.666;23.392;2024-01-10T06:14:53;96319.13;;;-3.25;100.00
3102;BME280;1561;42.666;23.392;2024-01-10T06:17:21;96354.88;;;-3.20;100.00
3102;BME280;1561;42.666;23.392;2024-01-10T06:19:51;96351.31;;;-2.98;100.00
3102;BME280;1561;42.666;23.392;2024-01-10T06:22:25;96361.44;;;-3.12;100.00
3102;BME280;1561;42.666;23.392;2024-01-10T06:25:01;96357.19;;;-3.05;100.00
3102;BME280;1561;42.666;23.392;2024-01-10T06:27:32;96335.06;;;-3.38;100.00
3102;BME280;1561;42.666;23.392;2024-01-10T06:30:03;96355.88;;;-3.38;100.00
3102;BME280;1561;42.666;23.392;2024-01-10T06:32:33;96366.59;;;-3.27;100.00
3102;BME280;1561;42.666;23.392;2024-01-10T06:35:05;96379.13;;;-3.31;100.00
3102;BME280;1561;42.666;23.392;2024-01-10T06:37:34;96356.91;;;-3.61;100.00
3102;BME280;1561;42.666;23.392;2024-01-10T06:40:06;96373.38;;;-3.42;100.00
3102;BME280;1561;42.666;23.392;2024-01-10T06:42:37;96365.69;;;-3.20;100.00
3102;BME280;1561;42.666;23.392;2024-01-10T06:45:13;96386.38;;;-3.07;100.00
3102;BME280;1561;42.666;23.392;2024-01-10T06:48:00;96384.56;;;-2.90;100.00
3102;BME280;1561;42.666;23.392;2024-01-10T06:50:36;96232.53;;;-4.09;100.00
3102;BME280;1561;42.666;23.392;2024-01-10T06:53:10;96337.63;;;-3.46;100.00
3102;BME280;1561;42.666;23.392;2024-01-10T06:55:48;96378.31;;;-3.35;100.00
3102;BME280;1561;42.666;23.392;2024-01-10T06:58:18;96394.75;;;-3.10;100.00
3102;BME280;1561;42.666;23.392;2024-01-10T07:00:50;96398.75;;;-2.94;100.00
3102;BME280;1561;42.666;23.392;2024-01-10T07:03:23;96401.47;;;-3.16;100.00
3102;BME280;1561;42.666;23.392;2024-01-10T07:05:54;96401.06;;;-3.69;100.00
3102;BME280;1561;42.666;23.392;2024-01-10T07:08:27;96385.25;;;-3.65;100.00
3102;BME280;1561;42.666;23.392;2024-01-10T07:10:59;96382.44;;;-3.29;100.00
3102;BME280;1561;42.666;23.392;2024-01-10T07:13:36;96388.19;;;-2.44;100.00
3102;BME280;1561;42.666;23.392;2024-01-10T07:16:07;96395.47;;;-1.14;100.00
3102;BME280;1561;42.666;23.392;2024-01-10T07:18:35;96393.47;;;-0.11;100.00
3102;BME280;1561;42.666;23.392;2024-01-10T07:21:08;96392.38;;;0.39;100.00
3102;BME280;1561;42.666;23.392;2024-01-10T07:23:36;96360.41;;;2.01;86.15
3102;BME280;1561;42.666;23.392;2024-01-10T07:26:13;96371.28;;;1.74;75.58
3102;BME280;1561;42.666;23.392;2024-01-10T07:28:43;96391.97;;;2.40;76.64
3102;BME280;1561;42.666;23.392;2024-01-10T07:31:19;96381.19;;;2.37;74.29
3102;BME280;1561;42.666;23.392;2024-01-10T07:33:47;96373.72;;;2.32;67.46
3102;BME280;1561;42.666;23.392;2024-01-10T07:36:23;96389.41;;;1.85;71.66
3102;BME280;1561;42.666;23.392;2024-01-10T07:38:52;96398.94;;;2.60;69.63
3102;BME280;1561;42.666;23.392;2024-01-10T07:41:24;96402.75;;;2.18;67.05
3102;BME280;1561;42.666;23.392;2024-01-10T07:43:54;96402.03;;;1.55;69.19
3102;BME280;1561;42.666;23.392;2024-01-10T07:46:25;96412.09;;;1.24;72.19
3102;BME280;1561;42.666;23.392;2024-01-10T07:48:53;96408.72;;;3.21;74.64
3102;BME280;1561;42.666;23.392;2024-01-10T07:51:24;96402.78;;;1.26;68.67
3102;BME280;1561;42.666;23.392;2024-01-10T07:53:57;96377.53;;;2.71;66.71
3102;BME280;1561;42.666;23.392;2024-01-10T07:56:25;96409.41;;;3.00;66.22
3102;BME280;1561;42.666;23.392;2024-01-10T07:58:59;96417.69;;;0.67;62.86
3102;BME280;1561;42.666;23.392;2024-01-10T08:01:55;96405.00;;;3.31;66.45
3102;BME280;1561;42.666;23.392;2024-01-10T08:04:31;96407.44;;;3.09;62.95
3102;BME280;1561;42.666;23.392;2024-01-10T08:07:06;96398.94;;;3.12;61.64
3102;BME280;1561;42.666;23.392;2024-01-10T08:09:42;96405.09;;;3.03;62.81
3102;BME280;1561;42.666;23.392;2024-01-10T08:12:24;96406.88;;;4.19;62.48
3102;BME280;1561;42.666;23.392;2024-01-10T08:15:00;96408.38;;;5.29;58.15
3102;BME280;1561;42.666;23.392;2024-01-10T08:17:34;96403.78;;;2.66;53.38
3102;BME280;1561;42.666;23.392;2024-01-10T08:20:10;96413.47;;;4.23;57.88
3102;BME280;1561;42.666;23.392;2024-01-10T08:22:48;96379.53;;;4.29;56.23
3102;BME280;1561;42.666;23.392;2024-01-10T08:25:16;96408.72;;;5.22;56.82
3102;BME280;1561;42.666;23.392;2024-01-10T08:27:51;96405.56;;;3.86;54.96
3102;BME280;1561;42.666;23.392;2024-01-10T08:30:21;96414.09;;;3.84;55.42
3102;BME280;1561;42.666;23.392;2024-01-10T08:32:53;96408.59;;;3.96;55.47
3102;BME280;1561;42.666;23.392;2024-01-10T08:35:20;96410.34;;;3.94;56.04
3102;BME280;1561;42.666;23.392;2024-01-10T08:37:48;96424.31;;;4.48;57.01
3102;BME280;1561;42.666;23.392;2024-01-10T08:40:17;96405.50;;;4.55;54.60
3102;BME280;1561;42.666;23.392;2024-01-10T08:42:49;96371.16;;;5.11;52.70
3102;BME280;1561;42.666;23.392;2024-01-10T08:45:23;96375.06;;;4.35;50.38
3102;BME280;1561;42.666;23.392;2024-01-10T08:47:57;96415.78;;;3.83;50.59
3102;BME280;1561;42.666;23.392;2024-01-10T08:50:35;96401.94;;;4.59;51.23
3102;BME280;1561;42.666;23.392;2024-01-10T08:53:06;96416.56;;;3.85;49.79
3102;BME280;1561;42.666;23.392;2024-01-10T08:55:37;96415.81;;;3.10;50.69
3102;BME280;1561;42.666;23.392;2024-01-10T08:58:25;96421.84;;;2.80;50.00
3102;BME280;1561;42.666;23.392;2024-01-10T09:00:59;96398.16;;;3.34;51.44
3102;BME280;1561;42.666;23.392;2024-01-10T09:03:36;96411.16;;;4.17;52.16
3102;BME280;1561;42.666;23.392;2024-01-10T09:06:07;96308.63;;;4.52;52.69
3102;BME280;1561;42.666;23.392;2024-01-10T09:08:37;96412.31;;;3.86;50.21
3102;BME280;1561;42.666;23.392;2024-01-10T09:11:09;96412.38;;;4.73;49.73
3102;BME280;1561;42.666;23.392;2024-01-10T09:13:40;96365.16;;;4.31;49.35
3102;BME280;1561;42.666;23.392;2024-01-10T09:16:09;96408.25;;;4.28;48.38
3102;BME280;1561;42.666;23.392;2024-01-10T09:18:46;96411.69;;;5.51;49.09
3102;BME280;1561;42.666;23.392;2024-01-10T09:21:20;96352.34;;;4.97;47.25
3102;BME280;1561;42.666;23.392;2024-01-10T09:23:53;96116.44;;;1.88;49.75
3102;BME280;1561;42.666;23.392;2024-01-10T09:26:24;96383.78;;;3.12;50.04
3102;BME280;1561;42.666;23.392;2024-01-10T09:28:53;96403.91;;;5.56;49.89
3102;BME280;1561;42.666;23.392;2024-01-10T09:31:30;96400.34;;;5.60;48.66
3102;BME280;1561;42.666;23.392;2024-01-10T09:34:03;96394.13;;;5.67;49.47
3102;BME280;1561;42.666;23.392;2024-01-10T09:36:47;96391.41;;;4.91;47.51
3102;BME280;1561;42.666;23.392;2024-01-10T09:39:23;96389.06;;;5.87;47.23
3102;BME280;1561;42.666;23.392;2024-01-10T09:42:01;96388.72;;;4.74;48.37
3102;BME280;1561;42.666;23.392;2024-01-10T09:44:35;96397.69;;;5.83;46.05
3102;BME280;1561;42.666;23.392;2024-01-10T09:47:10;96291.88;;;6.74;45.42
3102;BME280;1561;42.666;23.392;2024-01-10T09:49:47;96365.75;;;6.16;46.64
3102;BME280;1561;42.666;23.392;2024-01-10T09:52:24;96389.44;;;4.56;47.10
3102;BME280;1561;42.666;23.392;2024-01-10T09:54:56;96391.34;;;6.65;48.12
3102;BME280;1561;42.666;23.392;2024-01-10T09:57:35;96346.91;;;7.42;46.13
3102;BME280;1561;42.666;23.392;2024-01-10T10:00:06;96383.34;;;6.00;44.61
3102;BME280;1561;42.666;23.392;2024-01-10T10:02:37;96316.75;;;7.02;46.18
3102;BME280;1561;42.666;23.392;2024-01-10T10:05:28;96373.63;;;6.99;45.60
3102;BME280;1561;42.666;23.392;2024-01-10T10:07:59;96370.47;;;6.94;43.92
3102;BME280;1561;42.666;23.392;2024-01-10T10:10:33;96342.91;;;8.34;45.23
3102;BME280;1561;42.666;23.392;2024-01-10T10:13:04;96360.69;;;6.70;43.85
3102;BME280;1561;42.666;23.392;2024-01-10T10:15:39;96332.66;;;9.24;43.82
3102;BME280;1561;42.666;23.392;2024-01-10T10:18:15;96339.16;;;7.93;43.68
3102;BME280;1561;42.666;23.392;2024-01-10T10:21:06;96347.06;;;7.71;42.71
3102;BME280;1561;42.666;23.392;2024-01-10T10:23:42;96346.47;;;8.14;42.69
3102;BME280;1561;42.666;23.392;2024-01-10T10:26:17;96338.78;;;6.84;44.86
3102;BME280;1561;42.666;23.392;2024-01-10T10:28:55;96323.41;;;8.17;43.99
3102;BME280;1561;42.666;23.392;2024-01-10T10:31:29;96343.56;;;6.73;44.07
3102;BME280;1561;42.666;23.392;2024-01-10T10:34:08;96337.53;;;7.10;44.20
3102;BME280;1561;42.666;23.392;2024-01-10T10:36:50;96315.13;;;7.18;45.38
3102;BME280;1561;42.666;23.392;2024-01-10T10:39:21;96317.78;;;5.93;46.58
3102;BME280;1561;42.666;23.392;2024-01-10T10:41:53;96052.69;;;4.04;45.86
3102;BME280;1561;42.666;23.392;2024-01-10T10:44:24;96292.06;;;6.71;47.46
3102;BME280;1561;42.666;23.392;2024-01-10T10:47:06;96259.47;;;6.45;46.66
3102;BME280;1561;42.666;23.392;2024-01-10T10:49:58;96312.19;;;7.08;46.35
3102;BME280;1561;42.666;23.392;2024-01-10T10:52:42;96283.38;;;6.58;46.05
3102;BME280;1561;42.666;23.392;2024-01-10T10:55:15;96307.75;;;6.08;46.76
3102;BME280;1561;42.666;23.392;2024-01-10T10:57:51;96312.38;;;5.43;47.36
3102;BME280;1561;42.666;23.392;2024-01-10T11:00:22;96291.50;;;5.75;46.87
3102;BME280;1561;42.666;23.392;2024-01-10T11:02:54;96269.28;;;6.70;45.29
3102;BME280;1561;42.666;23.392;2024-01-10T11:05:30;96261.19;;;6.09;47.70
3102;BME280;1561;42.666;23.392;2024-01-10T11:08:03;96297.59;;;5.53;47.57
3102;BME280;1561;42.666;23.392;2024-01-10T11:10:45;96298.50;;;4.10;49.76
3102;BME280;1561;42.666;23.392;2024-01-10T11:13:28;96293.38;;;3.90;50.78
3102;BME280;1561;42.666;23.392;2024-01-10T11:20:13;96278.34;;;5.67;48.97
3102;BME280;1561;42.666;23.392;2024-01-10T11:23:02;96256.47;;;4.69;49.56
3102;BME280;1561;42.666;23.392;2024-01-10T11:25:52;96187.34;;;4.09;50.21
3102;BME280;1561;42.666;23.392;2024-01-10T11:31:34;96279.75;;;3.94;50.47
3102;BME280;1561;42.666;23.392;2024-01-10T11:34:24;96266.44;;;4.32;51.03
3102;BME280;1561;42.666;23.392;2024-01-10T11:37:28;96240.41;;;4.90;49.74
3102;BME280;1561;42.666;23.392;2024-01-10T11:40:00;96244.28;;;6.10;47.95
3102;BME280;1561;42.666;23.392;2024-01-10T11:42:41;96247.38;;;5.79;48.59
3102;BME280;1561;42.666;23.392;2024-01-10T11:45:36;96157.53;;;3.95;49.60
3102;BME280;1561;42.666;23.392;2024-01-10T11:48:25;96248.09;;;5.83;48.79
3102;BME280;1561;42.666;23.392;2024-01-10T11:50:58;96247.13;;;4.51;49.51
3102;BME280;1561;42.666;23.392;2024-01-10T11:53:41;96234.53;;;5.65;50.18
3102;BME280;1561;42.666;23.392;2024-01-10T11:56:39;96222.66;;;6.37;48.69
3102;BME280;1561;42.666;23.392;2024-01-10T11:59:09;96230.81;;;5.91;49.75
3102;BME280;1561;42.666;23.392;2024-01-10T12:01:44;96232.34;;;5.39;51.71
3102;BME280;1561;42.666;23.392;2024-01-10T12:04:14;96201.94;;;4.62;53.81
3102;BME280;1561;42.666;23.392;2024-01-10T12:06:45;96234.84;;;5.21;53.50
3102;BME280;1561;42.666;23.392;2024-01-10T12:09:16;96223.53;;;4.71;54.19
3102;BME280;1561;42.666;23.392;2024-01-10T12:11:48;96208.03;;;4.38;55.21
3102;BME280;1561;42.666;23.392;2024-01-10T12:14:21;96220.16;;;4.70;57.46
3102;BME280;1561;42.666;23.392;2024-01-10T12:16:51;96218.69;;;5.23;55.20
3102;BME280;1561;42.666;23.392;2024-01-10T12:19:19;96189.25;;;5.21;56.23
3102;BME280;1561;42.666;23.392;2024-01-10T12:21:54;96206.97;;;4.02;58.58
3102;BME280;1561;42.666;23.392;2024-01-10T12:24:27;96204.28;;;4.47;62.04
3102;BME280;1561;42.666;23.392;2024-01-10T12:27:02;96210.88;;;4.51;61.04
3102;BME280;1561;42.666;23.392;2024-01-10T12:29:33;96176.69;;;4.81;58.89
3102;BME280;1561;42.666;23.392;2024-01-10T12:32:26;96167.63;;;4.37;57.74
3102;BME280;1561;42.666;23.392;2024-01-10T12:35:00;96215.78;;;4.74;60.09
3102;BME280;1561;42.666;23.392;2024-01-10T12:37:29;96177.72;;;4.37;60.99
3102;BME280;1561;42.666;23.392;2024-01-10T12:40:03;96225.97;;;3.25;65.25
3102;BME280;1561;42.666;23.392;2024-01-10T12:42:40;96216.44;;;2.38;78.03
3102;BME280;1561;42.666;23.392;2024-01-10T12:45:31;96216.53;;;3.30;76.26
3102;BME280;1561;42.666;23.392;2024-01-10T12:48:00;96214.16;;;2.79;78.42
3102;BME280;1561;42.666;23.392;2024-01-10T12:50:44;96216.56;;;2.58;80.47
3102;BME280;1561;42.666;23.392;2024-01-10T12:53:44;96221.19;;;1.67;85.85
3102;BME280;1561;42.666;23.392;2024-01-10T12:56:24;96217.63;;;2.52;87.11
3102;BME280;1561;42.666;23.392;2024-01-10T12:58:59;96219.91;;;2.34;87.56
3102;BME280;1561;42.666;23.392;2024-01-10T13:01:31;96224.00;;;1.58;90.29
3102;BME280;1561;42.666;23.392;2024-01-10T13:04:09;96193.63;;;1.64;97.01
3102;BME280;1561;42.666;23.392;2024-01-10T13:06:39;96108.03;;;1.37;96.22
3102;BME280;1561;42.666;23.392;2024-01-10T13:09:20;96226.22;;;1.12;99.50
3102;BME280;1561;42.666;23.392;2024-01-10T13:11:54;96223.63;;;1.70;99.52
3102;BME280;1561;42.666;23.392;2024-01-10T13:14:28;96211.16;;;1.66;99.09
3102;BME280;1561;42.666;23.392;2024-01-10T13:16:59;96214.06;;;2.07;97.45
3102;BME280;1561;42.666;23.392;2024-01-10T13:19:31;96208.00;;;1.87;97.10
3102;BME280;1561;42.666;23.392;2024-01-10T13:22:01;96219.84;;;1.85;98.43
3102;BME280;1561;42.666;23.392;2024-01-10T13:24:39;96217.44;;;1.80;100.00
3102;BME280;1561;42.666;23.392;2024-01-10T13:27:26;96213.09;;;1.85;100.00
3102;BME280;1561;42.666;23.392;2024-01-10T13:30:11;96219.28;;;1.48;100.00
3102;BME280;1561;42.666;23.392;2024-01-10T13:32:48;96182.31;;;1.22;100.00
3102;BME280;1561;42.666;23.392;2024-01-10T13:35:29;96214.19;;;1.77;100.00
3102;BME280;1561;42.666;23.392;2024-01-10T13:38:04;96194.72;;;1.56;100.00
3102;BME280;1561;42.666;23.392;2024-01-10T13:40:42;96202.78;;;1.93;100.00
3102;BME280;1561;42.666;23.392;2024-01-10T13:43:24;96211.16;;;1.40;100.00
3102;BME280;1561;42.666;23.392;2024-01-10T13:45:57;96194.03;;;0.94;100.00